Terminal Aerodrome Forecast
Issued by NWS Portland, OR

Home | Current Version | Previous Version | Text Only | Print | Product List | Glossary On
Versions: 1 2 3 4 5 6 7 8 9 10 11 12 13 14 15 16 17 18 19 20 21 22 23 24
000
FTUS46 KPQR 241141 AAB
TAFHIO
TAF AMD
KHIO 241141Z 2412/2512 16013G20KT P6SM -RA OVC012
     FM241400 25010KT P6SM -SHRA BKN025 OVC045
     FM241800 25012G20KT P6SM SCT025 BKN040
     FM250100 22005KT P6SM VCSH SCT025 BKN040 BKN060
     FM250600 VRB03KT P6SM VCSH SCT025 OVC050=

USA.gov is the U.S. government's official web portal to all federal, state and local government web resources and services.